createdAt,value
2022-08-17T00:02:26.518Z,21.53
2022-08-17T00:05:36.793Z,21.50
2022-08-17T00:08:48.473Z,21.49
2022-08-17T00:12:34.907Z,21.46
2022-08-17T00:15:15.003Z,21.44
2022-08-17T00:19:08.003Z,21.37
2022-08-17T00:22:30.746Z,21.27
2022-08-17T00:25:14.209Z,21.19
2022-08-17T00:28:17.076Z,21.16
2022-08-17T00:31:20.851Z,21.06
2022-08-17T00:34:25.146Z,20.98
2022-08-17T00:37:30.252Z,20.88
2022-08-17T00:40:44.250Z,20.88
2022-08-17T00:43:57.316Z,20.82
2022-08-17T00:46:59.440Z,20.86
2022-08-17T00:50:02.499Z,20.80
2022-08-17T00:53:05.690Z,20.80
2022-08-17T00:56:14.508Z,20.77
2022-08-17T00:59:20.451Z,20.68
2022-08-17T01:02:23.973Z,20.66
2022-08-17T01:05:30.913Z,20.68
2022-08-17T01:08:33.441Z,20.71
2022-08-17T01:11:40.571Z,20.61
2022-08-17T01:14:43.054Z,20.62
2022-08-17T01:17:46.372Z,20.50
2022-08-17T01:20:51.972Z,20.46
2022-08-17T01:23:54.235Z,20.50
2022-08-17T01:26:57.677Z,20.52
2022-08-17T01:30:05.435Z,20.44
2022-08-17T01:33:28.622Z,20.42
2022-08-17T01:36:30.731Z,20.38
2022-08-17T01:39:37.763Z,20.33
2022-08-17T01:42:48.425Z,20.37
2022-08-17T01:46:03.138Z,20.31
2022-08-17T01:49:08.695Z,20.35
2022-08-17T01:52:12.565Z,20.29
2022-08-17T01:55:17.719Z,20.21
2022-08-17T01:58:21.299Z,20.17
2022-08-17T02:01:26.972Z,20.21
2022-08-17T02:04:29.441Z,20.24
2022-08-17T02:07:31.568Z,20.22
2022-08-17T02:10:46.825Z,20.26
2022-08-17T02:13:57.797Z,20.20
2022-08-17T02:17:06.305Z,20.16
2022-08-17T02:20:09.951Z,20.22
2022-08-17T02:23:12.887Z,20.29
2022-08-17T02:26:26.071Z,20.34
2022-08-17T02:29:29.319Z,20.34
2022-08-17T02:32:31.459Z,20.31
2022-08-17T02:35:34.188Z,20.30
2022-08-17T02:38:37.799Z,20.25
2022-08-17T02:41:40.428Z,20.13
2022-08-17T02:44:42.551Z,20.09
2022-08-17T02:47:45.760Z,20.05
2022-08-17T02:50:48.297Z,20.08
2022-08-17T02:53:50.982Z,20.02
2022-08-17T02:56:53.118Z,20.01
2022-08-17T02:59:55.467Z,20.03
2022-08-17T03:02:58.003Z,20.06
2022-08-17T03:06:00.760Z,19.99
2022-08-17T03:09:03.619Z,19.91
2022-08-17T03:12:12.705Z,19.91
2022-08-17T03:15:18.552Z,19.96
2022-08-17T03:18:25.272Z,19.90
2022-08-17T03:21:28.176Z,19.87
2022-08-17T03:24:30.583Z,19.84
2022-08-17T03:27:32.775Z,19.82
2022-08-17T03:30:35.995Z,19.65
2022-08-17T03:33:38.128Z,19.71
2022-08-17T03:36:40.663Z,19.68
2022-08-17T03:39:43.013Z,19.64
2022-08-17T03:42:45.597Z,19.59
2022-08-17T03:46:27.076Z,19.57
2022-08-17T03:49:47.937Z,19.54
2022-08-17T03:53:09.175Z,19.49
2022-08-17T03:56:29.994Z,19.41
2022-08-17T03:59:32.524Z,19.43
2022-08-17T04:02:34.902Z,19.38
2022-08-17T04:05:37.792Z,19.33
2022-08-17T04:08:39.890Z,19.33
2022-08-17T04:11:42.652Z,19.36
2022-08-17T04:14:53.401Z,19.35
2022-08-17T04:17:57.169Z,19.34
2022-08-17T04:20:59.379Z,19.34
2022-08-17T04:24:03.193Z,19.31
2022-08-17T04:27:05.466Z,19.29
2022-08-17T04:30:08.677Z,19.24
2022-08-17T04:33:17.362Z,19.30
2022-08-17T04:36:20.140Z,19.30
2022-08-17T04:39:24.962Z,19.26
2022-08-17T04:42:27.448Z,19.29
2022-08-17T04:45:32.049Z,19.42
2022-08-17T04:48:38.094Z,19.46
2022-08-17T04:51:54.753Z,19.53
2022-08-17T04:55:04.806Z,19.52
2022-08-17T04:58:09.080Z,19.51
2022-08-17T05:01:11.812Z,19.55
2022-08-17T05:04:32.165Z,19.60
2022-08-17T05:07:37.102Z,19.65
2022-08-17T05:10:39.267Z,19.65
2022-08-17T05:13:50.267Z,19.68
2022-08-17T05:16:52.602Z,19.77
2022-08-17T05:19:55.067Z,19.82
2022-08-17T05:23:00.953Z,19.84
2022-08-17T05:26:03.850Z,19.90
2022-08-17T05:29:09.146Z,19.95
2022-08-17T05:32:39.691Z,20.07
2022-08-17T05:35:37.932Z,20.07
2022-08-17T05:38:40.479Z,20.10
2022-08-17T05:41:42.637Z,20.20
2022-08-17T05:44:45.031Z,20.28
2022-08-17T05:47:47.570Z,20.37
2022-08-17T05:51:11.542Z,20.43
2022-08-17T05:54:39.465Z,20.51
2022-08-17T05:57:47.668Z,20.60
2022-08-17T06:01:39.977Z,20.70
2022-08-17T06:04:53.085Z,20.81
2022-08-17T06:08:02.645Z,20.89
2022-08-17T06:11:16.879Z,21.00
2022-08-17T06:14:55.385Z,21.10
2022-08-17T06:21:06.694Z,21.33
2022-08-17T06:24:51.361Z,21.43
2022-08-17T06:28:00.420Z,21.53
2022-08-17T06:31:19.959Z,21.66
2022-08-17T06:34:22.070Z,21.73
2022-08-17T06:38:00.152Z,21.80
2022-08-17T06:41:17.275Z,21.90
2022-08-17T06:44:49.753Z,22.00
2022-08-17T06:48:02.242Z,22.08
2022-08-17T06:51:18.998Z,22.21
2022-08-17T06:54:34.587Z,22.31
2022-08-17T06:57:41.311Z,22.41
2022-08-17T07:00:47.156Z,22.51
2022-08-17T07:03:59.027Z,22.63
2022-08-17T07:07:28.571Z,22.76
2022-08-17T07:10:43.003Z,22.87
2022-08-17T07:13:52.212Z,23.03
2022-08-17T07:16:58.450Z,23.15
2022-08-17T07:20:09.706Z,23.30
2022-08-17T07:23:37.787Z,23.42
2022-08-17T07:26:39.887Z,23.56
2022-08-17T07:29:47.913Z,23.74
2022-08-17T07:32:57.743Z,23.92
2022-08-17T07:36:00.880Z,24.21
2022-08-17T07:39:04.989Z,24.59
2022-08-17T07:42:10.290Z,25.05
2022-08-17T07:45:34.645Z,25.54
2022-08-17T07:48:40.473Z,26.04
2022-08-17T07:51:42.517Z,26.62
2022-08-17T07:54:44.923Z,27.05
2022-08-17T07:57:56.817Z,27.39
2022-08-17T08:01:06.030Z,27.78
2022-08-17T08:04:20.044Z,28.11
2022-08-17T08:07:55.029Z,28.57
2022-08-17T08:11:05.546Z,29.05
2022-08-17T08:14:32.653Z,29.37
2022-08-17T08:17:45.424Z,29.68
2022-08-17T08:20:53.110Z,30.21
2022-08-17T08:24:31.512Z,30.57
2022-08-17T08:27:50.220Z,31.04
2022-08-17T08:31:06.562Z,31.33
2022-08-17T08:34:58.894Z,31.66
2022-08-17T08:38:13.230Z,32.25
2022-08-17T08:41:26.249Z,32.62
2022-08-17T08:45:00.719Z,33.06
2022-08-17T08:48:56.768Z,33.21
2022-08-17T08:51:56.162Z,33.66
2022-08-17T08:55:35.604Z,34.17
2022-08-17T08:59:05.156Z,34.26
2022-08-17T09:02:20.767Z,34.46
2022-08-17T09:05:48.556Z,34.34
2022-08-17T09:09:15.845Z,34.49
2022-08-17T09:12:25.173Z,34.82
2022-08-17T09:15:33.465Z,34.99
2022-08-17T09:19:00.582Z,34.79
2022-08-17T09:22:17.425Z,34.75
2022-08-17T09:25:26.900Z,34.33
2022-08-17T09:28:35.127Z,34.70
2022-08-17T09:31:49.461Z,35.11
2022-08-17T09:34:57.127Z,35.09
2022-08-17T09:38:06.850Z,35.35
2022-08-17T09:41:25.050Z,35.51
2022-08-17T09:45:03.091Z,35.57
2022-08-17T09:48:23.205Z,35.50
2022-08-17T09:51:34.935Z,35.53
2022-08-17T09:54:40.843Z,34.87
2022-08-17T09:57:58.603Z,34.65
2022-08-17T10:01:18.592Z,34.05
2022-08-17T10:04:29.359Z,33.27
2022-08-17T10:07:40.509Z,32.47
2022-08-17T10:10:56.490Z,32.21
2022-08-17T10:14:36.487Z,32.57
2022-08-17T10:17:43.730Z,33.05
2022-08-17T10:21:39.876Z,33.36
2022-08-17T10:25:23.474Z,33.56
2022-08-17T10:28:32.152Z,33.79
2022-08-17T10:32:03.426Z,33.99
2022-08-17T10:35:16.593Z,34.09
2022-08-17T10:38:27.667Z,34.13
2022-08-17T10:41:40.802Z,34.00
2022-08-17T10:44:56.246Z,34.26
2022-08-17T10:48:39.683Z,34.19
2022-08-17T10:51:42.118Z,34.25
2022-08-17T10:54:49.178Z,34.28
2022-08-17T10:57:54.755Z,34.25
2022-08-17T11:00:58.497Z,34.42
2022-08-17T11:04:17.751Z,34.47
2022-08-17T11:07:35.255Z,34.29
2022-08-17T11:10:58.641Z,34.22
2022-08-17T11:14:18.865Z,34.02
2022-08-17T11:17:50.167Z,34.11
2022-08-17T11:21:17.490Z,34.11
2022-08-17T11:24:50.294Z,34.12
2022-08-17T11:28:24.723Z,34.23
2022-08-17T11:31:39.321Z,34.22
2022-08-17T11:34:44.541Z,34.13
2022-08-17T11:38:04.979Z,33.77
2022-08-17T11:41:29.047Z,33.42
2022-08-17T11:44:53.535Z,33.19
2022-08-17T11:48:28.444Z,33.13
2022-08-17T11:52:16.620Z,32.90
2022-08-17T11:55:38.242Z,32.55
2022-08-17T11:58:44.467Z,32.29
2022-08-17T12:01:46.877Z,32.30
2022-08-17T12:05:27.325Z,32.66
2022-08-17T12:08:33.868Z,33.09
2022-08-17T12:12:13.116Z,33.30
2022-08-17T12:15:18.882Z,33.53
2022-08-17T12:18:31.915Z,33.18
2022-08-17T12:21:51.351Z,33.04
2022-08-17T12:24:59.327Z,33.30
2022-08-17T12:28:06.304Z,33.44
2022-08-17T12:31:26.221Z,33.60
2022-08-17T12:34:36.019Z,33.68
2022-08-17T12:37:47.280Z,33.85
2022-08-17T12:40:58.075Z,33.89
2022-08-17T12:44:32.223Z,33.93
2022-08-17T12:47:37.725Z,34.04
2022-08-17T12:50:45.773Z,34.13
2022-08-17T12:53:55.478Z,34.13
2022-08-17T12:57:05.430Z,34.17
2022-08-17T13:00:25.242Z,34.29
2022-08-17T13:03:36.324Z,34.37
2022-08-17T13:06:48.816Z,34.31
2022-08-17T13:09:51.530Z,34.28
2022-08-17T13:12:54.424Z,34.16
2022-08-17T13:16:14.356Z,34.14
2022-08-17T13:19:29.732Z,33.92
2022-08-17T13:22:44.451Z,33.98
2022-08-17T13:25:58.466Z,34.07
2022-08-17T13:29:05.993Z,34.19
2022-08-17T13:32:11.536Z,34.13
2022-08-17T13:35:38.911Z,34.10
2022-08-17T13:38:49.512Z,34.02
2022-08-17T13:41:53.918Z,34.11
2022-08-17T13:44:56.485Z,34.13
2022-08-17T13:48:25.848Z,34.15
2022-08-17T13:51:41.670Z,34.15
2022-08-17T13:54:51.713Z,34.19
2022-08-17T13:58:07.237Z,34.12
2022-08-17T14:01:31.795Z,33.96
2022-08-17T14:04:35.373Z,34.02
2022-08-17T14:07:39.732Z,34.11
2022-08-17T14:10:45.025Z,34.07
2022-08-17T14:13:47.153Z,34.16
2022-08-17T14:16:51.156Z,34.08
2022-08-17T14:19:53.280Z,34.07
2022-08-17T14:22:55.850Z,33.95
2022-08-17T14:25:57.958Z,34.07
2022-08-17T14:29:00.531Z,34.05
2022-08-17T14:32:11.591Z,34.01
2022-08-17T14:35:15.628Z,33.94
2022-08-17T14:38:18.761Z,33.89
2022-08-17T14:41:23.415Z,33.90
2022-08-17T14:44:25.584Z,33.93
2022-08-17T14:47:28.009Z,33.92
2022-08-17T14:50:30.211Z,33.88
2022-08-17T14:53:34.203Z,33.85
2022-08-17T14:56:38.044Z,33.87
2022-08-17T14:59:40.587Z,33.82
2022-08-17T15:02:53.750Z,33.80
2022-08-17T15:05:56.243Z,33.77
2022-08-17T15:08:58.373Z,33.76
2022-08-17T15:12:02.268Z,33.68
2022-08-17T15:15:06.188Z,33.66
2022-08-17T15:18:08.600Z,33.58
2022-08-17T15:21:10.838Z,33.59
2022-08-17T15:24:13.955Z,33.52
2022-08-17T15:27:16.286Z,33.53
2022-08-17T15:30:31.471Z,33.51
2022-08-17T15:33:34.008Z,33.43
2022-08-17T15:36:37.009Z,33.41
2022-08-17T15:39:40.993Z,33.44
2022-08-17T15:42:43.430Z,33.49
2022-08-17T15:45:58.598Z,33.42
2022-08-17T15:49:02.206Z,33.37
2022-08-17T15:52:15.739Z,33.44
2022-08-17T15:55:23.843Z,33.39
2022-08-17T15:58:29.994Z,33.34
2022-08-17T16:03:01.470Z,33.29
2022-08-17T16:05:08.737Z,33.28
2022-08-17T16:08:15.865Z,33.20
2022-08-17T16:11:22.453Z,33.19
2022-08-17T16:14:32.325Z,33.13
2022-08-17T16:17:40.109Z,33.09
2022-08-17T16:20:43.143Z,33.07
2022-08-17T16:23:47.491Z,33.04
2022-08-17T16:26:51.988Z,32.96
2022-08-17T16:29:54.377Z,32.91
2022-08-17T16:33:00.997Z,32.87
2022-08-17T16:36:03.744Z,32.91
2022-08-17T16:39:05.873Z,32.82
2022-08-17T16:42:27.498Z,32.82
2022-08-17T16:45:36.559Z,32.80
2022-08-17T16:48:39.236Z,32.75
2022-08-17T16:51:41.501Z,32.67
2022-08-17T16:54:46.849Z,32.61
2022-08-17T16:57:50.298Z,32.57
2022-08-17T17:00:54.332Z,32.53
2022-08-17T17:04:02.448Z,32.50
2022-08-17T17:07:33.709Z,32.45
2022-08-17T17:10:49.163Z,32.40
2022-08-17T17:13:56.455Z,32.33
2022-08-17T17:17:10.685Z,32.26
2022-08-17T17:20:18.036Z,32.18
2022-08-17T17:23:37.605Z,32.10
2022-08-17T17:27:07.086Z,31.98
2022-08-17T17:30:09.406Z,31.87
2022-08-17T17:33:19.139Z,31.74
2022-08-17T17:36:31.611Z,31.60
2022-08-17T17:39:50.029Z,31.46
2022-08-17T17:43:09.286Z,31.31
2022-08-17T17:46:28.713Z,31.10
2022-08-17T17:49:37.057Z,30.91
2022-08-17T17:52:47.074Z,30.69
2022-08-17T17:56:05.278Z,30.47
2022-08-17T17:59:26.624Z,30.33
2022-08-17T18:02:51.673Z,30.15
2022-08-17T18:06:18.626Z,29.92
2022-08-17T18:09:33.868Z,29.74
2022-08-17T18:12:42.656Z,29.60
2022-08-17T18:15:51.513Z,29.52
2022-08-17T18:18:54.087Z,29.40
2022-08-17T18:22:18.603Z,29.24
2022-08-17T18:25:44.444Z,29.12
2022-08-17T18:28:51.184Z,29.04
2022-08-17T18:32:24.631Z,28.97
2022-08-17T18:35:30.202Z,28.87
2022-08-17T18:38:41.939Z,28.70
2022-08-17T18:41:51.161Z,28.37
2022-08-17T18:44:55.497Z,28.20
2022-08-17T18:47:57.842Z,28.14
2022-08-17T18:51:40.752Z,28.13
2022-08-17T18:55:12.506Z,28.07
2022-08-17T18:58:20.205Z,28.03
2022-08-17T19:01:52.058Z,27.99
2022-08-17T19:05:07.769Z,27.94
2022-08-17T19:08:28.338Z,27.89
2022-08-17T19:11:34.060Z,27.85
2022-08-17T19:14:36.554Z,27.80
2022-08-17T19:18:00.452Z,27.69
2022-08-17T19:21:17.852Z,27.67
2022-08-17T19:24:23.744Z,27.64
2022-08-17T19:27:46.258Z,27.59
2022-08-17T19:30:57.391Z,27.51
2022-08-17T19:34:00.446Z,27.35
2022-08-17T19:37:11.371Z,27.26
2022-08-17T19:40:51.714Z,27.18
2022-08-17T19:44:14.362Z,27.12
2022-08-17T19:47:54.878Z,27.05
2022-08-17T19:51:10.647Z,26.96
2022-08-17T19:54:21.518Z,26.95
2022-08-17T19:57:57.156Z,26.94
2022-08-17T20:01:00.087Z,26.93
2022-08-17T20:04:09.260Z,26.88
2022-08-17T20:07:24.278Z,26.82
2022-08-17T20:10:30.555Z,26.68
2022-08-17T20:13:48.973Z,26.58
2022-08-17T20:16:51.495Z,26.38
2022-08-17T20:20:07.379Z,26.27
2022-08-17T20:23:36.923Z,26.22
2022-08-17T20:26:55.515Z,26.16
2022-08-17T20:30:12.941Z,26.03
2022-08-17T20:33:29.385Z,25.93
2022-08-17T20:36:36.812Z,25.83
2022-08-17T20:39:41.666Z,25.71
2022-08-17T20:42:44.073Z,25.61
2022-08-17T20:46:01.794Z,25.45
2022-08-17T20:49:30.956Z,25.41
2022-08-17T20:52:50.806Z,25.34
2022-08-17T20:55:55.804Z,25.30
2022-08-17T20:58:58.940Z,25.25
2022-08-17T21:02:18.664Z,25.24
2022-08-17T21:05:37.085Z,25.21
2022-08-17T21:08:57.956Z,25.20
2022-08-17T21:12:04.252Z,25.20
2022-08-17T21:15:34.923Z,25.14
2022-08-17T21:18:57.887Z,24.93
2022-08-17T21:22:24.551Z,24.84
2022-08-17T21:25:48.193Z,24.77
2022-08-17T21:29:29.759Z,24.72
2022-08-17T21:32:33.905Z,24.65
2022-08-17T21:35:48.557Z,24.62
2022-08-17T21:38:58.330Z,24.59
2022-08-17T21:42:00.889Z,24.54
2022-08-17T21:45:20.439Z,24.40
2022-08-17T21:48:25.385Z,24.31
2022-08-17T21:51:29.305Z,24.27
2022-08-17T21:54:35.422Z,24.16
2022-08-17T21:57:41.738Z,24.11
2022-08-17T22:01:23.758Z,24.03
2022-08-17T22:04:41.669Z,23.94
2022-08-17T22:07:50.784Z,23.89
2022-08-17T22:11:02.258Z,23.88
2022-08-17T22:14:16.728Z,23.81
2022-08-17T22:17:29.063Z,23.81
2022-08-17T22:20:31.378Z,23.75
2022-08-17T22:24:04.287Z,23.78
2022-08-17T22:27:11.083Z,23.70
2022-08-17T22:30:24.962Z,23.63
2022-08-17T22:33:33.340Z,23.55
2022-08-17T22:36:37.525Z,23.56
2022-08-17T22:39:40.747Z,23.56
2022-08-17T22:42:48.551Z,23.58
2022-08-17T22:45:54.543Z,23.48
2022-08-17T22:48:59.460Z,23.48
2022-08-17T22:52:32.474Z,23.38
2022-08-17T22:55:53.620Z,23.26
2022-08-17T22:59:17.662Z,23.19
2022-08-17T23:02:30.867Z,23.14
2022-08-17T23:05:34.084Z,23.16
2022-08-17T23:08:51.223Z,23.20
2022-08-17T23:11:58.935Z,23.22
2022-08-17T23:15:02.247Z,23.09
2022-08-17T23:18:04.853Z,23.12
2022-08-17T23:21:07.719Z,23.12
2022-08-17T23:24:11.845Z,23.03
2022-08-17T23:27:14.405Z,23.00
2022-08-17T23:30:16.611Z,23.00
2022-08-17T23:33:29.971Z,22.97
2022-08-17T23:36:32.436Z,22.94
2022-08-17T23:39:35.107Z,22.97
2022-08-17T23:42:46.179Z,22.95
2022-08-17T23:45:48.845Z,22.92
2022-08-17T23:48:54.008Z,22.88
2022-08-17T23:51:56.593Z,22.87
2022-08-17T23:54:59.361Z,22.85
2022-08-17T23:58:04.447Z,22.73
